Hall Beach, Canada
Current Conditions -  °F | °C
As of 7:48 AM on Monday 20 Oct 2014 (Local Time) from CYUX Reporting Station
Light Snow Light Snow  
Wind Chill: 23°   Ceiling: 3300
Heat Index: 30°   Visibility: 6mi
Dew Point: 28°   Wind: 8mph
Humidity: 93%   Direction: 180°S
Pressure: 29.62"   Gusts: NA
Location:  68.78°N, 81.22°W
Report Text: CYUX 201148Z AUTO 18007KT 6SM -SN OVC033 M01/M02 A2962 RMK SLP032
Loading
Personal Weather Stations






























Interactive Weather Map
Tropical Storm Tracking
New forecast layout! Learn more

10-Day Weather Forecast

Advertisements
Track Severe Weather on mobile